Time,TemperatureF,DewpointF,PressureIn,WindDirection,WindDirectionDegrees,WindSpeedMPH,WindSpeedGustMPH,Humidity,HourlyPrecipIn,Conditions,Clouds,dailyrainin,SoftwareType,DateUTC
2013-11-30 00:01:00,36.1,20.0,30.21,NW,324,1.0,4.0,53,0.00,,,0.00,weatherlink.com 1.10,2013-11-30 07:01:00,
2013-11-30 00:16:00,36.8,21.0,30.21,NW,314,1.0,2.0,53,0.00,,,0.00,weatherlink.com 1.10,2013-11-30 07:16:00,
2013-11-30 00:31:00,37.7,21.0,30.20,NNW,337,1.0,1.0,51,0.00,,,0.00,weatherlink.com 1.10,2013-11-30 07:31:00,
2013-11-30 00:46:00,38.1,21.0,30.20,NNW,338,0.0,2.0,50,0.00,,,0.00,weatherlink.com 1.10,2013-11-30 07:46:00,
2013-11-30 01:01:00,39.2,20.0,30.20,NNW,338,0.0,1.0,47,0.00,,,0.00,weatherlink.com 1.10,2013-11-30 08:01:00,
2013-11-30 01:16:00,40.7,21.0,30.20,NNW,337,0.0,1.0,45,0.00,,,0.00,weatherlink.com 1.10,2013-11-30 08:16:00,
2013-11-30 01:32:00,40.7,21.0,30.20,NNW,338,0.0,0.0,45,0.00,,,0.00,weatherlink.com 1.10,2013-11-30 08:32:00,
2013-11-30 01:47:00,40.6,21.0,30.21,NNW,338,0.0,1.0,45,0.00,,,0.00,weatherlink.com 1.10,2013-11-30 08:47:00,
2013-11-30 02:02:00,38.3,20.0,30.21,WSW,255,0.0,2.0,48,0.00,,,0.00,weatherlink.com 1.10,2013-11-30 09:02:00,
2013-11-30 02:17:00,38.0,20.0,30.21,NW,311,0.0,3.0,48,0.00,,,0.00,weatherlink.com 1.10,2013-11-30 09:17:00,
2013-11-30 02:32:00,37.9,20.0,30.21,NW,321,0.0,2.0,49,0.00,,,0.00,weatherlink.com 1.10,2013-11-30 09:32:00,
2013-11-30 02:47:00,38.7,20.0,30.20,WNW,301,3.0,5.0,48,0.00,,,0.00,weatherlink.com 1.10,2013-11-30 09:47:00,
2013-11-30 03:02:00,39.2,20.0,30.20,NW,311,2.0,6.0,47,0.00,,,0.00,weatherlink.com 1.10,2013-11-30 10:02:00,
2013-11-30 03:17:00,38.7,20.0,30.20,NNW,335,0.0,3.0,48,0.00,,,0.00,weatherlink.com 1.10,2013-11-30 10:17:00,
2013-11-30 03:32:00,39.8,20.0,30.20,NW,312,2.0,4.0,46,0.00,,,0.00,weatherlink.com 1.10,2013-11-30 10:32:00,
2013-11-30 03:47:00,40.1,20.0,30.20,NW,309,1.0,2.0,45,0.00,,,0.00,weatherlink.com 1.10,2013-11-30 10:47:00,
2013-11-30 04:02:00,40.8,20.0,30.20,NW,309,0.0,3.0,44,0.00,,,0.00,weatherlink.com 1.10,2013-11-30 11:02:00,
2013-11-30 04:17:00,40.7,20.0,30.20,NW,314,2.0,3.0,44,0.00,,,0.00,weatherlink.com 1.10,2013-11-30 11:17:00,
2013-11-30 04:32:00,40.0,20.0,30.20,East,79,0.0,2.0,45,0.00,,,0.00,weatherlink.com 1.10,2013-11-30 11:32:00,
2013-11-30 04:47:00,40.4,20.0,30.20,NE,43,1.0,2.0,44,0.00,,,0.00,weatherlink.com 1.10,2013-11-30 11:47:00,
2013-11-30 05:02:00,40.8,19.0,30.19,NE,43,0.0,1.0,42,0.00,,,0.00,weatherlink.com 1.10,2013-11-30 12:02:00,
2013-11-30 05:17:00,37.7,18.0,30.19,NE,42,0.0,1.0,45,0.00,,,0.00,weatherlink.com 1.10,2013-11-30 12:17:00,
2013-11-30 05:32:00,34.1,18.0,30.18,NW,307,0.0,5.0,52,0.00,,,0.00,weatherlink.com 1.10,2013-11-30 12:32:00,
2013-11-30 05:48:00,33.6,18.0,30.19,SSE,150,0.0,2.0,54,0.00,,,0.00,weatherlink.com 1.10,2013-11-30 12:48:00,
2013-11-30 06:02:00,32.9,19.0,30.19,West,262,1.0,2.0,58,0.00,,,0.00,weatherlink.com 1.10,2013-11-30 13:02:00,
2013-11-30 06:17:00,33.8,20.0,30.19,NW,305,1.0,2.0,58,0.00,,,0.00,weatherlink.com 1.10,2013-11-30 13:17:00,
2013-11-30 06:32:00,34.7,20.0,30.19,NW,305,0.0,1.0,55,0.00,,,0.00,weatherlink.com 1.10,2013-11-30 13:32:00,
2013-11-30 06:47:00,34.9,20.0,30.19,NW,305,1.0,1.0,56,0.00,,,0.00,weatherlink.com 1.10,2013-11-30 13:47:00,
2013-11-30 07:02:00,34.3,20.0,30.20,West,271,1.0,3.0,57,0.00,,,0.00,weatherlink.com 1.10,2013-11-30 14:02:00,
2013-11-30 07:17:00,35.3,20.0,30.20,West,271,0.0,1.0,55,0.00,,,0.00,weatherlink.com 1.10,2013-11-30 14:17:00,
2013-11-30 07:32:00,37.7,21.0,30.21,West,271,0.0,1.0,51,0.00,,,0.00,weatherlink.com 1.10,2013-11-30 14:32:00,
2013-11-30 07:47:00,38.5,21.0,30.21,East,89,0.0,3.0,49,0.00,,,0.00,weatherlink.com 1.10,2013-11-30 14:47:00,
2013-11-30 08:02:00,38.1,22.0,30.21,East,96,3.0,3.0,53,0.00,,,0.00,weatherlink.com 1.10,2013-11-30 15:02:00,
2013-11-30 08:17:00,38.5,23.0,30.22,NE,46,2.0,3.0,54,0.00,,,0.00,weatherlink.com 1.10,2013-11-30 15:17:00,
2013-11-30 08:32:00,39.2,24.0,30.22,East,83,1.0,3.0,55,0.00,,,0.00,weatherlink.com 1.10,2013-11-30 15:32:00,
2013-11-30 08:47:00,40.4,24.0,30.22,NE,40,0.0,3.0,52,0.00,,,0.00,weatherlink.com 1.10,2013-11-30 15:47:00,
2013-11-30 09:02:00,41.3,23.0,30.22,NNE,20,0.0,4.0,49,0.00,,,0.00,weatherlink.com 1.10,2013-11-30 16:02:00,
2013-11-30 09:17:00,43.2,25.0,30.22,SE,146,2.0,3.0,49,0.00,,,0.00,weatherlink.com 1.10,2013-11-30 16:17:00,
2013-11-30 09:32:00,43.5,24.0,30.22,East,101,3.0,5.0,47,0.00,,,0.00,weatherlink.com 1.10,2013-11-30 16:32:00,
2013-11-30 09:47:00,44.7,25.0,30.22,SE,134,2.0,3.0,46,0.00,,,0.00,weatherlink.com 1.10,2013-11-30 16:47:00,
2013-11-30 10:02:00,45.3,24.0,30.22,SSW,200,1.0,4.0,44,0.00,,,0.00,weatherlink.com 1.10,2013-11-30 17:02:00,
2013-11-30 10:17:00,46.3,25.0,30.22,SSW,203,5.0,6.0,44,0.00,,,0.00,weatherlink.com 1.10,2013-11-30 17:17:00,
2013-11-30 10:32:00,47.4,25.0,30.22,SW,228,1.0,3.0,41,0.00,,,0.00,weatherlink.com 1.10,2013-11-30 17:32:00,
2013-11-30 10:47:00,49.0,24.0,30.21,SE,132,2.0,4.0,37,0.00,,,0.00,weatherlink.com 1.10,2013-11-30 17:47:00,
2013-11-30 11:02:00,49.7,25.0,30.21,South,184,2.0,5.0,38,0.00,,,0.00,weatherlink.com 1.10,2013-11-30 18:02:00,
2013-11-30 11:17:00,50.3,24.0,30.20,South,187,5.0,5.0,36,0.00,,,0.00,weatherlink.com 1.10,2013-11-30 18:17:00,
2013-11-30 11:32:00,50.3,23.0,30.19,SE,130,4.0,6.0,34,0.00,,,0.00,weatherlink.com 1.10,2013-11-30 18:32:00,
2013-11-30 11:47:00,50.2,24.0,30.19,SE,129,7.0,7.0,36,0.00,,,0.00,weatherlink.com 1.10,2013-11-30 18:47:00,
2013-11-30 12:03:00,51.8,23.0,30.18,SSE,167,7.0,8.0,33,0.00,,,0.00,weatherlink.com 1.10,2013-11-30 19:03:00,
2013-11-30 12:18:00,51.7,23.0,30.17,ESE,113,7.0,8.0,32,0.00,,,0.00,weatherlink.com 1.10,2013-11-30 19:18:00,
2013-11-30 12:33:00,52.0,22.0,30.16,East,101,4.0,8.0,31,0.00,,,0.00,weatherlink.com 1.10,2013-11-30 19:33:00,
2013-11-30 12:48:00,52.3,20.0,30.16,ESE,111,2.0,10.0,28,0.00,,,0.00,weatherlink.com 1.10,2013-11-30 19:48:00,
2013-11-30 13:03:00,52.7,21.0,30.15,ESE,120,5.0,11.0,29,0.00,,,0.00,weatherlink.com 1.10,2013-11-30 20:03:00,
2013-11-30 13:18:00,53.1,19.0,30.15,SE,128,4.0,8.0,26,0.00,,,0.00,weatherlink.com 1.10,2013-11-30 20:18:00,
2013-11-30 13:33:00,53.3,18.0,30.15,ESE,103,8.0,10.0,25,0.00,,,0.00,weatherlink.com 1.10,2013-11-30 20:33:00,
2013-11-30 13:48:00,53.3,22.0,30.15,SE,125,6.0,8.0,29,0.00,,,0.00,weatherlink.com 1.10,2013-11-30 20:48:00,
2013-11-30 14:03:00,53.6,22.0,30.14,East,101,5.0,9.0,29,0.00,,,0.00,weatherlink.com 1.10,2013-11-30 21:03:00,
2013-11-30 14:18:00,53.7,22.0,30.14,ESE,114,4.0,8.0,29,0.00,,,0.00,weatherlink.com 1.10,2013-11-30 21:18:00,
2013-11-30 14:33:00,53.7,20.0,30.14,ESE,122,6.0,7.0,27,0.00,,,0.00,weatherlink.com 1.10,2013-11-30 21:33:00,
2013-11-30 14:48:00,53.6,21.0,30.14,ESE,120,4.0,5.0,28,0.00,,,0.00,weatherlink.com 1.10,2013-11-30 21:48:00,
2013-11-30 15:03:00,53.4,19.0,30.14,ESE,102,5.0,5.0,26,0.00,,,0.00,weatherlink.com 1.10,2013-11-30 22:03:00,
2013-11-30 15:18:00,53.1,21.0,30.14,SE,129,4.0,5.0,28,0.00,,,0.00,weatherlink.com 1.10,2013-11-30 22:18:00,
2013-11-30 15:33:00,52.8,20.0,30.14,East,96,2.0,4.0,28,0.00,,,0.00,weatherlink.com 1.10,2013-11-30 22:33:00,
2013-11-30 15:48:00,52.4,22.0,30.15,East,97,0.0,2.0,31,0.00,,,0.00,weatherlink.com 1.10,2013-11-30 22:48:00,
2013-11-30 16:03:00,52.0,22.0,30.15,East,97,0.0,1.0,31,0.00,,,0.00,weatherlink.com 1.10,2013-11-30 23:03:00,
2013-11-30 16:18:00,51.3,23.0,30.16,East,97,0.0,1.0,33,0.00,,,0.00,weatherlink.com 1.10,2013-11-30 23:18:00,
2013-11-30 16:33:00,49.1,23.0,30.16,East,98,1.0,1.0,36,0.00,,,0.00,weatherlink.com 1.10,2013-11-30 23:33:00,
2013-11-30 16:48:00,47.9,23.0,30.16,East,97,0.0,1.0,37,0.00,,,0.00,weatherlink.com 1.10,2013-11-30 23:48:00,
2013-11-30 17:03:00,46.7,22.0,30.16,East,97,0.0,1.0,38,0.00,,,0.00,weatherlink.com 1.10,2013-12-01 00:03:00,
2013-11-30 17:18:00,46.7,21.0,30.17,East,98,1.0,1.0,36,0.00,,,0.00,weatherlink.com 1.10,2013-12-01 00:18:00,
2013-11-30 17:33:00,45.5,21.0,30.17,East,97,0.0,1.0,38,0.00,,,0.00,weatherlink.com 1.10,2013-12-01 00:33:00,
2013-11-30 17:48:00,46.5,21.0,30.18,East,97,0.0,1.0,36,0.00,,,0.00,weatherlink.com 1.10,2013-12-01 00:48:00,
2013-11-30 18:03:00,46.2,20.0,30.18,East,98,0.0,1.0,36,0.00,,,0.00,weatherlink.com 1.10,2013-12-01 01:03:00,
2013-11-30 18:18:00,46.1,20.0,30.19,East,97,0.0,1.0,35,0.00,,,0.00,weatherlink.com 1.10,2013-12-01 01:18:00,
2013-11-30 18:33:00,47.4,20.0,30.19,East,97,0.0,0.0,34,0.00,,,0.00,weatherlink.com 1.10,2013-12-01 01:33:00,
2013-11-30 18:48:00,47.3,19.0,30.19,East,97,1.0,1.0,33,0.00,,,0.00,weatherlink.com 1.10,2013-12-01 01:48:00,
2013-11-30 19:03:00,46.2,19.0,30.19,East,97,1.0,2.0,34,0.00,,,0.00,weatherlink.com 1.10,2013-12-01 02:03:00,
2013-11-30 19:18:00,46.8,18.0,30.20,East,97,0.0,1.0,32,0.00,,,0.00,weatherlink.com 1.10,2013-12-01 02:18:00,
2013-11-30 19:33:00,43.6,18.0,30.19,WNW,288,1.0,3.0,36,0.00,,,0.00,weatherlink.com 1.10,2013-12-01 02:33:00,
2013-11-30 19:48:00,42.0,19.0,30.20,WNW,288,0.0,2.0,39,0.00,,,0.00,weatherlink.com 1.10,2013-12-01 02:48:00,
2013-11-30 20:03:00,37.8,19.0,30.20,NNE,27,2.0,6.0,46,0.00,,,0.00,weatherlink.com 1.10,2013-12-01 03:03:00,
2013-11-30 20:18:00,35.6,19.0,30.20,NNE,19,2.0,4.0,51,0.00,,,0.00,weatherlink.com 1.10,2013-12-01 03:18:00,
2013-11-30 20:33:00,37.1,19.0,30.20,NNE,19,1.0,2.0,49,0.00,,,0.00,weatherlink.com 1.10,2013-12-01 03:33:00,
2013-11-30 20:48:00,38.7,20.0,30.20,North,1,1.0,3.0,47,0.00,,,0.00,weatherlink.com 1.10,2013-12-01 03:48:00,
2013-11-30 21:03:00,38.8,20.0,30.21,North,8,2.0,2.0,47,0.00,,,0.00,weatherlink.com 1.10,2013-12-01 04:03:00,
2013-11-30 21:18:00,40.2,20.0,30.20,North,8,2.0,2.0,45,0.00,,,0.00,weatherlink.com 1.10,2013-12-01 04:18:00,
2013-11-30 21:33:00,39.1,20.0,30.20,NNE,23,2.0,2.0,47,0.00,,,0.00,weatherlink.com 1.10,2013-12-01 04:33:00,
2013-11-30 21:48:00,41.6,21.0,30.20,NE,49,2.0,3.0,44,0.00,,,0.00,weatherlink.com 1.10,2013-12-01 04:48:00,
2013-11-30 22:03:00,40.5,21.0,30.22,North,5,1.0,3.0,45,0.00,,,0.00,weatherlink.com 1.10,2013-12-01 05:03:00,
2013-11-30 22:18:00,40.4,20.0,30.22,NNE,25,0.0,2.0,45,0.00,,,0.00,weatherlink.com 1.10,2013-12-01 05:18:00,
2013-11-30 22:33:00,41.3,21.0,30.22,East,85,0.0,1.0,44,0.00,,,0.00,weatherlink.com 1.10,2013-12-01 05:33:00,
2013-11-30 22:48:00,39.9,20.0,30.22,NE,37,2.0,4.0,46,0.00,,,0.00,weatherlink.com 1.10,2013-12-01 05:48:00,
2013-11-30 23:03:00,39.5,21.0,30.22,NE,50,3.0,5.0,47,0.00,,,0.00,weatherlink.com 1.10,2013-12-01 06:03:00,
2013-11-30 23:18:00,36.3,20.0,30.21,NNE,16,2.0,4.0,53,0.00,,,0.00,weatherlink.com 1.10,2013-12-01 06:18:00,
2013-11-30 23:33:00,37.7,21.0,30.21,NNE,22,2.0,3.0,51,0.00,,,0.00,weatherlink.com 1.10,2013-12-01 06:33:00,
2013-11-30 23:48:00,37.8,21.0,30.21,WSW,249,3.0,3.0,50,0.00,,,0.00,weatherlink.com 1.10,2013-12-01 06:48:00,